Jacksonville, NC

17:22 EDT le 02 septembre 2014 (GMT -0400)
Ellis | Change Station
CLOSE
Current Station
Aéroport
Location: Jacksonville,
Altitude: 95 ft
Stations météo à proximité

Alt. 95 ft 34.83 °N, 77.62 °W | Updated 7 minutes ago

Clear
Ciel dégagé
91 ° F
Paraît 100 ° F
N
14
Vent Variable Vent de Sud

Aujourd'hui
Haut(e) -- | Bas -- ° F
--% Risque de précip.
Hier
Haut(e) -- | Bas -- ° F
Precip. -- pouce
6:43 AM 7:34 PM
Premier quartier, 55% visible
Pression 29.97 pouce
Visibilité 10.0 Miles terrestres
Nuages Ciel dégagé
indice de chaleur 100 ° F
Point de rosée 73 ° F
Humidité 55%
Précipitations 0.00 pouce
Profondeur de la couche neigeuse Non disponible.
UV 3 sur 12
Pollen 9.00 sur 12
Qualité de l'air Non disponible.
Flu Activity Non disponible.
METAR KOAJ 022115Z AUTO 18012KT 10SM CLR 33/23 A2997 RMK AO1 LTG DSNT N TSE01

More Conditions Fewer Conditions

Pression 29.97 pouce
Visibilité 10.0 Miles terrestres
Nuages Ciel dégagé
indice de chaleur 100 ° F
Point de rosée 73 ° F
Humidité 55%
Précipitations 0.00 pouce
Profondeur de la couche neigeuse Non disponible.
UV 3 sur 12
Pollen 9.00 sur 12
Qualité de l'air Non disponible.
Flu Activity Non disponible.
METAR KOAJ 022115Z AUTO 18012KT 10SM CLR 33/23 A2997 RMK AO1 LTG DSNT N TSE01

More Conditions Fewer Conditions

10-Day Weather Forecast

Almanac

Astronomie

Sep. 02, 2014 Lever Coucher
Temps réel 06:43 EDT 19:34 EDT
Crépuscule civil 06:17 EDT 20:00 EDT
Crépuscule nautique 05:47 EDT 20:30 EDT
Crépuscule astronomique 05:15 EDT 21:02 EDT
Lune 14:08 EDT Pas de coucher de lune
Durée de lumière visible 13h 42m
Longueur du jour
12h 51m
Tomorrow will be 2m 6s shorter.
Premier quartier, 55% of the Moon is Illuminated
Aujourd'hui
Premier quartier
Sep 8
Pleine lune
Sep 15
Dernier quartier
Sep 24
Nouveau
Oct 1
Premier quartier

Extrêmes aujourd'hui

State Highs State Lows

Community

WunderPhotos

Upload Photos

1,749,769 Photos téléchargées !

Nearby

Épaisseur de neige

Station Depth Altitude
Pas de nouvelles chutes de neige

Activité sismique

Ville Distance Mag. Time & Date
No recent earthquake activity has been reported nearby.
Minimum magnitude displayed is 2.5.

Températures des eaux côtières

Lieu Température
Beaufort, NC 84.0 ° F
Johnny Mercer Pier, Wrightsville Beach, NC 84.9 ° F
Hatteras, NC 84.0 ° F
Oregon Inlet Marina, NC 84.9 ° F

Stations météo à proximité